sensor_id;sensor_type;location;lat;lon;timestamp;pressure;altitude;pressure_sealevel;temperature;humidity
76998;BME280;65930;48.874;10.734;2022-12-16T00:01:23;94633.78;;;-2.38;80.22
76998;BME280;65930;48.874;10.734;2022-12-16T00:03:52;94637.09;;;-2.29;79.51
76998;BME280;65930;48.874;10.734;2022-12-16T00:06:19;94633.81;;;-2.19;79.44
76998;BME280;65930;48.874;10.734;2022-12-16T00:08:45;94620.25;;;-2.19;79.99
76998;BME280;65930;48.874;10.734;2022-12-16T00:11:10;94623.63;;;-2.26;79.69
76998;BME280;65930;48.874;10.734;2022-12-16T00:13:38;94625.09;;;-2.28;80.18
76998;BME280;65930;48.874;10.734;2022-12-16T00:16:09;94617.16;;;-2.37;80.34
76998;BME280;65930;48.874;10.734;2022-12-16T00:18:36;94617.53;;;-2.38;79.89
76998;BME280;65930;48.874;10.734;2022-12-16T00:21:02;94629.84;;;-2.41;80.19
76998;BME280;65930;48.874;10.734;2022-12-16T00:23:29;94633.63;;;-2.45;80.11
76998;BME280;65930;48.874;10.734;2022-12-16T00:25:55;94624.34;;;-2.44;79.45
76998;BME280;65930;48.874;10.734;2022-12-16T00:28:21;94626.88;;;-2.51;80.37
76998;BME280;65930;48.874;10.734;2022-12-16T00:30:49;94635.19;;;-2.44;80.26
76998;BME280;65930;48.874;10.734;2022-12-16T00:33:15;94626.88;;;-2.51;80.49
76998;BME280;65930;48.874;10.734;2022-12-16T00:35:41;94637.22;;;-2.57;81.16
76998;BME280;65930;48.874;10.734;2022-12-16T00:38:07;94640.63;;;-2.44;80.20
76998;BME280;65930;48.874;10.734;2022-12-16T00:40:33;94642.28;;;-2.55;80.75
76998;BME280;65930;48.874;10.734;2022-12-16T00:42:58;94636.34;;;-2.45;80.83
76998;BME280;65930;48.874;10.734;2022-12-16T00:45:24;94624.63;;;-2.49;80.05
76998;BME280;65930;48.874;10.734;2022-12-16T00:47:49;94642.03;;;-2.50;80.37
76998;BME280;65930;48.874;10.734;2022-12-16T00:50:16;94629.53;;;-2.55;81.46
76998;BME280;65930;48.874;10.734;2022-12-16T00:52:41;94635.56;;;-2.61;81.05
76998;BME280;65930;48.874;10.734;2022-12-16T00:55:07;94635.47;;;-2.65;81.07
76998;BME280;65930;48.874;10.734;2022-12-16T00:57:33;94631.19;;;-2.50;80.82
76998;BME280;65930;48.874;10.734;2022-12-16T00:59:58;94629.84;;;-2.56;80.72
76998;BME280;65930;48.874;10.734;2022-12-16T01:02:24;94637.72;;;-2.51;80.95
76998;BME280;65930;48.874;10.734;2022-12-16T01:04:50;94621.31;;;-2.58;80.89
76998;BME280;65930;48.874;10.734;2022-12-16T01:07:15;94625.34;;;-2.68;82.01
76998;BME280;65930;48.874;10.734;2022-12-16T01:09:41;94634.41;;;-2.60;81.27
76998;BME280;65930;48.874;10.734;2022-12-16T01:12:06;94621.03;;;-2.53;80.83
76998;BME280;65930;48.874;10.734;2022-12-16T01:14:32;94621.66;;;-2.60;81.29
76998;BME280;65930;48.874;10.734;2022-12-16T01:16:58;94625.41;;;-2.64;81.81
76998;BME280;65930;48.874;10.734;2022-12-16T01:19:23;94634.88;;;-2.58;81.30
76998;BME280;65930;48.874;10.734;2022-12-16T01:21:49;94627.44;;;-2.61;81.54
76998;BME280;65930;48.874;10.734;2022-12-16T01:24:14;94621.91;;;-2.49;80.79
76998;BME280;65930;48.874;10.734;2022-12-16T01:26:40;94632.56;;;-2.56;81.03
76998;BME280;65930;48.874;10.734;2022-12-16T01:29:05;94628.31;;;-2.57;80.95
76998;BME280;65930;48.874;10.734;2022-12-16T01:31:31;94628.31;;;-2.57;80.95
76998;BME280;65930;48.874;10.734;2022-12-16T01:33:56;94630.75;;;-2.52;80.56
76998;BME280;65930;48.874;10.734;2022-12-16T01:36:23;94622.03;;;-2.61;80.26
76998;BME280;65930;48.874;10.734;2022-12-16T01:38:48;94621.66;;;-2.60;80.81
76998;BME280;65930;48.874;10.734;2022-12-16T01:41:15;94621.56;;;-2.63;80.68
76998;BME280;65930;48.874;10.734;2022-12-16T01:43:44;94632.34;;;-2.67;80.29
76998;BME280;65930;48.874;10.734;2022-12-16T01:48:56;94632.41;;;-2.63;80.32
76998;BME280;65930;48.874;10.734;2022-12-16T01:51:36;94630.75;;;-2.68;80.44
76998;BME280;65930;48.874;10.734;2022-12-16T01:54:23;94640.03;;;-2.69;80.80
76998;BME280;65930;48.874;10.734;2022-12-16T01:57:04;94653.38;;;-2.60;80.74
76998;BME280;65930;48.874;10.734;2022-12-16T01:59:38;94666.00;;;-2.68;80.87
76998;BME280;65930;48.874;10.734;2022-12-16T02:02:05;94665.91;;;-2.72;81.20
76998;BME280;65930;48.874;10.734;2022-12-16T02:04:30;94677.09;;;-2.73;81.16
76998;BME280;65930;48.874;10.734;2022-12-16T02:06:57;94684.78;;;-2.59;80.87
76998;BME280;65930;48.874;10.734;2022-12-16T02:09:23;94685.56;;;-2.59;79.93
76998;BME280;65930;48.874;10.734;2022-12-16T02:12:16;94675.59;;;-2.55;80.37
76998;BME280;65930;48.874;10.734;2022-12-16T02:15:14;94673.16;;;-2.44;80.00
76998;BME280;65930;48.874;10.734;2022-12-16T02:21:12;94667.47;;;-2.39;79.33
76998;BME280;65930;48.874;10.734;2022-12-16T02:26:15;94692.56;;;-2.42;79.86
76998;BME280;65930;48.874;10.734;2022-12-16T02:37:18;94687.47;;;-2.28;79.14
76998;BME280;65930;48.874;10.734;2022-12-16T02:40:22;94681.09;;;-2.36;79.49
76998;BME280;65930;48.874;10.734;2022-12-16T02:43:45;94681.28;;;-2.44;80.31
76998;BME280;65930;48.874;10.734;2022-12-16T02:45:59;94686.00;;;-2.41;80.54
76998;BME280;65930;48.874;10.734;2022-12-16T02:48:25;94682.44;;;-2.45;80.88
76998;BME280;65930;48.874;10.734;2022-12-16T02:50:51;94681.03;;;-2.39;80.36
76998;BME280;65930;48.874;10.734;2022-12-16T02:53:18;94688.28;;;-2.43;81.05
76998;BME280;65930;48.874;10.734;2022-12-16T03:01:26;94690.72;;;-2.70;82.05
76998;BME280;65930;48.874;10.734;2022-12-16T03:07:12;94687.78;;;-2.80;82.29
76998;BME280;65930;48.874;10.734;2022-12-16T03:09:41;94681.56;;;-2.81;82.61
76998;BME280;65930;48.874;10.734;2022-12-16T03:12:12;94691.19;;;-2.68;82.26
76998;BME280;65930;48.874;10.734;2022-12-16T03:14:42;94685.69;;;-2.71;82.49
76998;BME280;65930;48.874;10.734;2022-12-16T03:17:10;94693.09;;;-2.68;82.41
76998;BME280;65930;48.874;10.734;2022-12-16T03:19:42;94695.03;;;-2.69;82.56
76998;BME280;65930;48.874;10.734;2022-12-16T03:22:20;94703.59;;;-2.67;82.13
76998;BME280;65930;48.874;10.734;2022-12-16T03:24:48;94706.56;;;-2.72;82.46
76998;BME280;65930;48.874;10.734;2022-12-16T03:27:26;94712.78;;;-2.71;82.63
76998;BME280;65930;48.874;10.734;2022-12-16T03:32:32;94708.41;;;-2.76;82.61
76998;BME280;65930;48.874;10.734;2022-12-16T03:35:16;94716.00;;;-2.81;82.54
76998;BME280;65930;48.874;10.734;2022-12-16T03:37:47;94713.88;;;-2.88;82.45
76998;BME280;65930;48.874;10.734;2022-12-16T03:40:15;94703.50;;;-2.86;82.74
76998;BME280;65930;48.874;10.734;2022-12-16T03:42:42;94717.28;;;-2.75;82.76
76998;BME280;65930;48.874;10.734;2022-12-16T03:45:16;94707.09;;;-2.82;82.40
76998;BME280;65930;48.874;10.734;2022-12-16T03:47:49;94709.53;;;-2.77;82.80
76998;BME280;65930;48.874;10.734;2022-12-16T03:50:20;94707.09;;;-2.66;82.44
76998;BME280;65930;48.874;10.734;2022-12-16T03:52:47;94726.16;;;-2.62;81.38
76998;BME280;65930;48.874;10.734;2022-12-16T03:55:13;94732.25;;;-2.66;81.44
76998;BME280;65930;48.874;10.734;2022-12-16T03:57:38;94734.03;;;-2.57;81.36
76998;BME280;65930;48.874;10.734;2022-12-16T04:00:05;94733.41;;;-2.67;81.79
76998;BME280;65930;48.874;10.734;2022-12-16T04:02:30;94737.88;;;-2.58;81.40
76998;BME280;65930;48.874;10.734;2022-12-16T04:04:56;94737.34;;;-2.64;80.95
76998;BME280;65930;48.874;10.734;2022-12-16T04:07:21;94730.00;;;-2.63;81.07
76998;BME280;65930;48.874;10.734;2022-12-16T04:09:51;94730.25;;;-2.69;81.92
76998;BME280;65930;48.874;10.734;2022-12-16T04:12:18;94731.38;;;-2.70;81.91
76998;BME280;65930;48.874;10.734;2022-12-16T04:15:03;94730.97;;;-2.72;81.79
76998;BME280;65930;48.874;10.734;2022-12-16T04:17:44;94735.69;;;-2.69;81.48
76998;BME280;65930;48.874;10.734;2022-12-16T04:20:31;94747.41;;;-2.64;81.21
76998;BME280;65930;48.874;10.734;2022-12-16T04:23:18;94744.97;;;-2.54;81.10
76998;BME280;65930;48.874;10.734;2022-12-16T04:26:03;94746.63;;;-2.49;80.93
76998;BME280;65930;48.874;10.734;2022-12-16T04:28:29;94748.78;;;-2.71;80.47
76998;BME280;65930;48.874;10.734;2022-12-16T04:30:55;94740.03;;;-2.80;81.27
76998;BME280;65930;48.874;10.734;2022-12-16T04:33:22;94741.59;;;-2.79;81.84
76998;BME280;65930;48.874;10.734;2022-12-16T04:36:06;94746.06;;;-2.71;81.42
76998;BME280;65930;48.874;10.734;2022-12-16T04:38:51;94745.03;;;-2.82;81.73
76998;BME280;65930;48.874;10.734;2022-12-16T04:41:35;94750.59;;;-2.75;81.06
76998;BME280;65930;48.874;10.734;2022-12-16T04:44:19;94746.34;;;-2.76;81.68
76998;BME280;65930;48.874;10.734;2022-12-16T04:47:03;94747.47;;;-2.77;80.91
76998;BME280;65930;48.874;10.734;2022-12-16T04:49:47;94741.84;;;-2.84;81.60
76998;BME280;65930;48.874;10.734;2022-12-16T04:52:31;94749.56;;;-2.86;81.60
76998;BME280;65930;48.874;10.734;2022-12-16T04:55:20;94756.03;;;-2.75;81.09
76998;BME280;65930;48.874;10.734;2022-12-16T04:58:07;94751.47;;;-2.86;80.88
76998;BME280;65930;48.874;10.734;2022-12-16T05:00:51;94766.94;;;-2.87;81.37
76998;BME280;65930;48.874;10.734;2022-12-16T05:03:36;94781.88;;;-2.93;82.38
76998;BME280;65930;48.874;10.734;2022-12-16T05:06:20;94781.19;;;-2.90;82.08
76998;BME280;65930;48.874;10.734;2022-12-16T05:09:05;94786.88;;;-2.95;82.18
76998;BME280;65930;48.874;10.734;2022-12-16T05:11:50;94799.94;;;-2.97;82.81
76998;BME280;65930;48.874;10.734;2022-12-16T05:14:35;94800.19;;;-3.02;82.69
76998;BME280;65930;48.874;10.734;2022-12-16T05:17:20;94809.66;;;-2.96;82.76
76998;BME280;65930;48.874;10.734;2022-12-16T05:20:05;94815.97;;;-2.92;83.52
76998;BME280;65930;48.874;10.734;2022-12-16T05:22:49;94816.66;;;-2.95;83.45
76998;BME280;65930;48.874;10.734;2022-12-16T05:25:33;94827.13;;;-2.93;83.34
76998;BME280;65930;48.874;10.734;2022-12-16T05:28:18;94845.03;;;-3.04;83.39
76998;BME280;65930;48.874;10.734;2022-12-16T05:31:02;94839.94;;;-3.06;83.46
76998;BME280;65930;48.874;10.734;2022-12-16T05:33:46;94833.25;;;-2.96;83.22
76998;BME280;65930;48.874;10.734;2022-12-16T05:36:31;94843.75;;;-2.95;83.32
76998;BME280;65930;48.874;10.734;2022-12-16T05:39:15;94840.81;;;-2.90;83.08
76998;BME280;65930;48.874;10.734;2022-12-16T05:41:59;94844.31;;;-2.89;82.74
76998;BME280;65930;48.874;10.734;2022-12-16T05:44:43;94840.34;;;-2.92;82.10
76998;BME280;65930;48.874;10.734;2022-12-16T05:47:27;94839.31;;;-2.87;81.77
76998;BME280;65930;48.874;10.734;2022-12-16T05:50:11;94842.59;;;-2.94;82.53
76998;BME280;65930;48.874;10.734;2022-12-16T05:52:56;94848.88;;;-3.05;81.82
76998;BME280;65930;48.874;10.734;2022-12-16T05:55:41;94839.72;;;-3.01;81.96
76998;BME280;65930;48.874;10.734;2022-12-16T05:58:39;94843.13;;;-3.04;81.91
76998;BME280;65930;48.874;10.734;2022-12-16T06:01:23;94839.38;;;-2.99;82.30
76998;BME280;65930;48.874;10.734;2022-12-16T06:04:07;94843.22;;;-3.00;82.12
76998;BME280;65930;48.874;10.734;2022-12-16T06:06:51;94858.13;;;-3.06;81.90
76998;BME280;65930;48.874;10.734;2022-12-16T06:09:35;94856.75;;;-3.13;81.81
76998;BME280;65930;48.874;10.734;2022-12-16T06:12:19;94861.28;;;-3.17;81.50
76998;BME280;65930;48.874;10.734;2022-12-16T06:15:03;94876.88;;;-3.14;81.64
76998;BME280;65930;48.874;10.734;2022-12-16T06:17:49;94874.19;;;-3.14;81.64
76998;BME280;65930;48.874;10.734;2022-12-16T06:20:34;94879.47;;;-3.17;81.52
76998;BME280;65930;48.874;10.734;2022-12-16T06:23:19;94891.09;;;-3.17;80.85
76998;BME280;65930;48.874;10.734;2022-12-16T06:26:04;94891.69;;;-3.23;81.63
76998;BME280;65930;48.874;10.734;2022-12-16T06:28:49;94903.31;;;-3.23;81.59
76998;BME280;65930;48.874;10.734;2022-12-16T06:31:33;94904.09;;;-3.22;81.49
76998;BME280;65930;48.874;10.734;2022-12-16T06:34:17;94908.13;;;-3.16;81.26
76998;BME280;65930;48.874;10.734;2022-12-16T06:37:01;94902.81;;;-3.13;81.48
76998;BME280;65930;48.874;10.734;2022-12-16T06:39:45;94913.13;;;-3.18;81.27
76998;BME280;65930;48.874;10.734;2022-12-16T06:42:29;94917.16;;;-3.12;81.10
76998;BME280;65930;48.874;10.734;2022-12-16T06:45:13;94923.28;;;-3.27;81.17
76998;BME280;65930;48.874;10.734;2022-12-16T06:47:58;94924.19;;;-3.23;81.42
76998;BME280;65930;48.874;10.734;2022-12-16T06:50:42;94921.69;;;-3.28;81.22
76998;BME280;65930;48.874;10.734;2022-12-16T06:53:29;94921.25;;;-3.18;81.33
76998;BME280;65930;48.874;10.734;2022-12-16T06:56:13;94926.66;;;-3.18;80.76
76998;BME280;65930;48.874;10.734;2022-12-16T06:58:57;94931.63;;;-3.20;80.90
76998;BME280;65930;48.874;10.734;2022-12-16T07:01:41;94939.50;;;-3.15;80.87
76998;BME280;65930;48.874;10.734;2022-12-16T07:04:25;94941.22;;;-3.23;81.33
76998;BME280;65930;48.874;10.734;2022-12-16T07:07:09;94950.59;;;-3.32;81.42
76998;BME280;65930;48.874;10.734;2022-12-16T07:09:53;94948.09;;;-3.25;80.72
76998;BME280;65930;48.874;10.734;2022-12-16T07:12:38;94962.19;;;-3.20;81.64
76998;BME280;65930;48.874;10.734;2022-12-16T07:15:23;94968.97;;;-3.14;81.28
76998;BME280;65930;48.874;10.734;2022-12-16T07:18:07;94962.75;;;-3.26;81.47
76998;BME280;65930;48.874;10.734;2022-12-16T07:20:51;94968.41;;;-3.19;81.56
76998;BME280;65930;48.874;10.734;2022-12-16T07:23:35;94975.63;;;-3.35;81.50
76998;BME280;65930;48.874;10.734;2022-12-16T07:26:19;94992.88;;;-3.52;82.28
76998;BME280;65930;48.874;10.734;2022-12-16T07:29:03;94991.88;;;-3.35;82.01
76998;BME280;65930;48.874;10.734;2022-12-16T07:31:47;94991.22;;;-3.32;81.56
76998;BME280;65930;48.874;10.734;2022-12-16T07:34:31;95012.06;;;-3.33;82.03
76998;BME280;65930;48.874;10.734;2022-12-16T07:37:15;95006.44;;;-3.28;81.89
76998;BME280;65930;48.874;10.734;2022-12-16T07:40:00;95026.19;;;-3.27;81.88
76998;BME280;65930;48.874;10.734;2022-12-16T07:42:47;95033.41;;;-3.19;80.98
76998;BME280;65930;48.874;10.734;2022-12-16T07:45:31;95027.09;;;-3.11;81.37
76998;BME280;65930;48.874;10.734;2022-12-16T07:48:15;95030.47;;;-3.14;81.24
76998;BME280;65930;48.874;10.734;2022-12-16T07:50:59;95027.31;;;-3.16;81.16
76998;BME280;65930;48.874;10.734;2022-12-16T07:53:43;95033.63;;;-3.12;81.07
76998;BME280;65930;48.874;10.734;2022-12-16T07:56:27;95051.47;;;-3.11;80.71
76998;BME280;65930;48.874;10.734;2022-12-16T07:59:11;95045.25;;;-3.12;81.04
76998;BME280;65930;48.874;10.734;2022-12-16T08:01:56;95053.53;;;-3.08;81.18
76998;BME280;65930;48.874;10.734;2022-12-16T08:04:39;95062.31;;;-3.11;80.63
76998;BME280;65930;48.874;10.734;2022-12-16T08:07:23;95060.50;;;-3.07;80.66
76998;BME280;65930;48.874;10.734;2022-12-16T08:10:08;95070.09;;;-3.09;80.95
76998;BME280;65930;48.874;10.734;2022-12-16T08:13:03;95058.69;;;-3.27;81.60
76998;BME280;65930;48.874;10.734;2022-12-16T08:15:47;95071.44;;;-3.28;81.40
76998;BME280;65930;48.874;10.734;2022-12-16T08:18:31;95073.56;;;-3.21;81.71
76998;BME280;65930;48.874;10.734;2022-12-16T08:21:16;95071.78;;;-3.05;81.07
76998;BME280;65930;48.874;10.734;2022-12-16T08:24:00;95067.97;;;-3.04;80.87
76998;BME280;65930;48.874;10.734;2022-12-16T08:26:44;95063.56;;;-2.96;80.47
76998;BME280;65930;48.874;10.734;2022-12-16T08:29:29;95077.09;;;-3.08;80.34
76998;BME280;65930;48.874;10.734;2022-12-16T08:32:13;95083.63;;;-2.97;80.04
76998;BME280;65930;48.874;10.734;2022-12-16T08:34:57;95088.94;;;-3.01;80.65
76998;BME280;65930;48.874;10.734;2022-12-16T08:37:42;95105.63;;;-3.11;81.24
76998;BME280;65930;48.874;10.734;2022-12-16T08:40:26;95104.66;;;-2.94;80.42
76998;BME280;65930;48.874;10.734;2022-12-16T08:43:10;95111.78;;;-2.90;80.04
76998;BME280;65930;48.874;10.734;2022-12-16T08:45:54;95100.69;;;-3.09;80.45
76998;BME280;65930;48.874;10.734;2022-12-16T08:48:38;95116.03;;;-2.89;80.05
76998;BME280;65930;48.874;10.734;2022-12-16T08:51:22;95109.84;;;-2.65;79.56
76998;BME280;65930;48.874;10.734;2022-12-16T08:54:07;95105.00;;;-2.72;78.92
76998;BME280;65930;48.874;10.734;2022-12-16T08:56:51;95115.16;;;-2.81;79.56
76998;BME280;65930;48.874;10.734;2022-12-16T08:59:35;95120.59;;;-2.81;79.40
76998;BME280;65930;48.874;10.734;2022-12-16T09:02:19;95125.44;;;-2.74;79.28
76998;BME280;65930;48.874;10.734;2022-12-16T09:05:03;95128.94;;;-2.86;79.36
76998;BME280;65930;48.874;10.734;2022-12-16T09:07:47;95120.13;;;-2.95;79.79
76998;BME280;65930;48.874;10.734;2022-12-16T09:10:30;95130.63;;;-2.81;80.08
76998;BME280;65930;48.874;10.734;2022-12-16T09:13:15;95131.19;;;-2.63;79.25
76998;BME280;65930;48.874;10.734;2022-12-16T09:16:00;95135.16;;;-2.49;78.46
76998;BME280;65930;48.874;10.734;2022-12-16T09:18:44;95133.69;;;-2.58;78.86
76998;BME280;65930;48.874;10.734;2022-12-16T09:21:29;95145.41;;;-2.42;78.55
76998;BME280;65930;48.874;10.734;2022-12-16T09:24:13;95135.03;;;-2.40;78.30
76998;BME280;65930;48.874;10.734;2022-12-16T09:26:57;95146.88;;;-2.33;78.01
76998;BME280;65930;48.874;10.734;2022-12-16T09:29:41;95147.91;;;-2.37;78.15
76998;BME280;65930;48.874;10.734;2022-12-16T09:32:25;95150.50;;;-2.41;78.34
76998;BME280;65930;48.874;10.734;2022-12-16T09:35:09;95144.75;;;-2.51;78.70
76998;BME280;65930;48.874;10.734;2022-12-16T09:37:53;95152.88;;;-2.63;79.40
76998;BME280;65930;48.874;10.734;2022-12-16T09:40:39;95163.50;;;-2.58;79.13
76998;BME280;65930;48.874;10.734;2022-12-16T09:47:04;95162.63;;;-2.38;78.85
76998;BME280;65930;48.874;10.734;2022-12-16T09:49:53;95164.31;;;-2.34;77.76
76998;BME280;65930;48.874;10.734;2022-12-16T09:52:57;95170.06;;;-2.35;78.84
76998;BME280;65930;48.874;10.734;2022-12-16T09:55:45;95180.34;;;-2.41;78.66
76998;BME280;65930;48.874;10.734;2022-12-16T09:59:05;95176.84;;;-2.17;78.34
76998;BME280;65930;48.874;10.734;2022-12-16T10:01:49;95180.28;;;-1.80;76.87
76998;BME280;65930;48.874;10.734;2022-12-16T10:04:34;95185.72;;;-1.80;77.12
76998;BME280;65930;48.874;10.734;2022-12-16T10:07:22;95198.63;;;-1.89;77.48
76998;BME280;65930;48.874;10.734;2022-12-16T10:21:59;95198.19;;;-2.03;78.07
76998;BME280;65930;48.874;10.734;2022-12-16T10:28:17;95201.47;;;-1.98;77.87
76998;BME280;65930;48.874;10.734;2022-12-16T10:31:12;95194.88;;;-1.85;77.49
76998;BME280;65930;48.874;10.734;2022-12-16T10:33:56;95198.41;;;-1.96;77.67
76998;BME280;65930;48.874;10.734;2022-12-16T10:36:41;95189.69;;;-1.77;77.05
76998;BME280;65930;48.874;10.734;2022-12-16T10:39:35;95186.09;;;-1.54;76.99
76998;BME280;65930;48.874;10.734;2022-12-16T10:42:30;95201.56;;;-1.42;76.07
76998;BME280;65930;48.874;10.734;2022-12-16T10:45:25;95192.81;;;-1.75;76.24
76998;BME280;65930;48.874;10.734;2022-12-16T10:48:11;95204.50;;;-1.87;76.58
76998;BME280;65930;48.874;10.734;2022-12-16T10:50:59;95204.47;;;-1.75;77.67
76998;BME280;65930;48.874;10.734;2022-12-16T10:53:45;95209.66;;;-1.70;76.76
76998;BME280;65930;48.874;10.734;2022-12-16T10:56:53;95207.47;;;-1.92;78.06
76998;BME280;65930;48.874;10.734;2022-12-16T10:59:41;95211.19;;;-1.97;78.87
76998;BME280;65930;48.874;10.734;2022-12-16T11:02:27;95209.38;;;-1.93;78.49
76998;BME280;65930;48.874;10.734;2022-12-16T11:05:32;95199.50;;;-1.85;78.07
76998;BME280;65930;48.874;10.734;2022-12-16T11:08:27;95208.72;;;-2.02;79.01
76998;BME280;65930;48.874;10.734;2022-12-16T11:11:27;95205.28;;;-1.87;78.63
76998;BME280;65930;48.874;10.734;2022-12-16T11:14:23;95207.31;;;-1.96;78.19
76998;BME280;65930;48.874;10.734;2022-12-16T11:17:23;95223.41;;;-2.03;78.44
76998;BME280;65930;48.874;10.734;2022-12-16T11:20:23;95222.94;;;-1.93;78.92
76998;BME280;65930;48.874;10.734;2022-12-16T11:23:20;95223.47;;;-1.75;78.62
76998;BME280;65930;48.874;10.734;2022-12-16T11:26:17;95218.38;;;-1.77;78.19
76998;BME280;65930;48.874;10.734;2022-12-16T11:29:13;95225.50;;;-1.72;77.55
76998;BME280;65930;48.874;10.734;2022-12-16T11:32:20;95229.03;;;-1.84;77.37
76998;BME280;65930;48.874;10.734;2022-12-16T11:35:11;95227.22;;;-1.80;77.76
76998;BME280;65930;48.874;10.734;2022-12-16T11:37:58;95222.91;;;-1.68;76.78
76998;BME280;65930;48.874;10.734;2022-12-16T11:40:43;95224.72;;;-1.72;77.32
76998;BME280;65930;48.874;10.734;2022-12-16T11:43:29;95221.09;;;-1.77;77.18
76998;BME280;65930;48.874;10.734;2022-12-16T11:46:25;95220.75;;;-1.75;77.83
76998;BME280;65930;48.874;10.734;2022-12-16T11:49:28;95241.94;;;-1.93;78.06
76998;BME280;65930;48.874;10.734;2022-12-16T11:52:16;95232.19;;;-1.82;77.92
76998;BME280;65930;48.874;10.734;2022-12-16T11:55:18;95224.56;;;-1.52;77.29
76998;BME280;65930;48.874;10.734;2022-12-16T12:01:17;95237.81;;;-1.62;76.95
76998;BME280;65930;48.874;10.734;2022-12-16T12:04:07;95235.56;;;-1.60;76.71
76998;BME280;65930;48.874;10.734;2022-12-16T12:10:01;95245.31;;;-1.71;77.60
76998;BME280;65930;48.874;10.734;2022-12-16T12:13:01;95259.59;;;-1.99;78.30
76998;BME280;65930;48.874;10.734;2022-12-16T12:16:00;95264.56;;;-1.89;78.41
76998;BME280;65930;48.874;10.734;2022-12-16T12:18:59;95270.91;;;-1.97;78.34
76998;BME280;65930;48.874;10.734;2022-12-16T12:21:55;95275.75;;;-1.78;78.35
76998;BME280;65930;48.874;10.734;2022-12-16T12:34:17;95271.34;;;-1.83;78.66
76998;BME280;65930;48.874;10.734;2022-12-16T12:40:21;95284.56;;;-1.93;79.12
76998;BME280;65930;48.874;10.734;2022-12-16T12:43:43;95274.75;;;-1.98;79.43
76998;BME280;65930;48.874;10.734;2022-12-16T12:46:40;95286.72;;;-1.99;79.50
76998;BME280;65930;48.874;10.734;2022-12-16T12:53:07;95291.72;;;-2.01;79.82
76998;BME280;65930;48.874;10.734;2022-12-16T12:58:39;95304.91;;;-1.99;79.13
76998;BME280;65930;48.874;10.734;2022-12-16T13:01:29;95306.16;;;-2.09;78.98
76998;BME280;65930;48.874;10.734;2022-12-16T13:04:18;95315.63;;;-2.27;79.97
76998;BME280;65930;48.874;10.734;2022-12-16T13:07:06;95311.16;;;-2.11;79.67
76998;BME280;65930;48.874;10.734;2022-12-16T13:13:27;95317.47;;;-2.07;79.66
76998;BME280;65930;48.874;10.734;2022-12-16T13:22:33;95332.38;;;-2.25;79.41
76998;BME280;65930;48.874;10.734;2022-12-16T13:25:50;95329.44;;;-2.20;79.88
76998;BME280;65930;48.874;10.734;2022-12-16T13:28:40;95336.91;;;-2.17;79.68
76998;BME280;65930;48.874;10.734;2022-12-16T13:31:27;95345.03;;;-2.29;79.49
76998;BME280;65930;48.874;10.734;2022-12-16T13:37:25;95340.94;;;-2.23;79.70
76998;BME280;65930;48.874;10.734;2022-12-16T13:40:22;95354.31;;;-2.18;79.34
76998;BME280;65930;48.874;10.734;2022-12-16T13:46:44;95363.56;;;-2.31;79.63
76998;BME280;65930;48.874;10.734;2022-12-16T13:58:31;95374.31;;;-2.23;78.82
76998;BME280;65930;48.874;10.734;2022-12-16T14:01:37;95388.88;;;-2.27;78.99
76998;BME280;65930;48.874;10.734;2022-12-16T14:04:28;95399.06;;;-2.24;78.96
76998;BME280;65930;48.874;10.734;2022-12-16T14:07:21;95398.78;;;-2.10;78.56
76998;BME280;65930;48.874;10.734;2022-12-16T14:10:23;95399.53;;;-2.10;78.55
76998;BME280;65930;48.874;10.734;2022-12-16T14:13:20;95405.53;;;-2.16;78.67
76998;BME280;65930;48.874;10.734;2022-12-16T14:16:30;95419.19;;;-2.25;79.14
76998;BME280;65930;48.874;10.734;2022-12-16T14:25:56;95428.56;;;-2.23;78.79
76998;BME280;65930;48.874;10.734;2022-12-16T14:28:47;95430.84;;;-2.25;78.85
76998;BME280;65930;48.874;10.734;2022-12-16T14:31:41;95426.44;;;-2.17;78.19
76998;BME280;65930;48.874;10.734;2022-12-16T14:34:31;95438.28;;;-2.22;78.89
76998;BME280;65930;48.874;10.734;2022-12-16T14:37:21;95440.75;;;-2.29;78.94
76998;BME280;65930;48.874;10.734;2022-12-16T14:40:28;95427.78;;;-2.23;78.60
76998;BME280;65930;48.874;10.734;2022-12-16T14:43:21;95440.88;;;-2.25;78.51
76998;BME280;65930;48.874;10.734;2022-12-16T14:46:23;95428.66;;;-2.31;78.56
76998;BME280;65930;48.874;10.734;2022-12-16T14:49:22;95435.06;;;-2.36;78.24
76998;BME280;65930;48.874;10.734;2022-12-16T14:55:19;95454.06;;;-2.36;78.84
76998;BME280;65930;48.874;10.734;2022-12-16T14:58:18;95447.91;;;-2.24;78.21
76998;BME280;65930;48.874;10.734;2022-12-16T15:01:23;95459.16;;;-2.34;78.29
76998;BME280;65930;48.874;10.734;2022-12-16T15:04:15;95457.97;;;-2.25;78.24
76998;BME280;65930;48.874;10.734;2022-12-16T15:07:04;95471.72;;;-2.30;79.02
76998;BME280;65930;48.874;10.734;2022-12-16T15:09:53;95462.06;;;-2.39;79.24
76998;BME280;65930;48.874;10.734;2022-12-16T15:12:42;95475.72;;;-2.48;80.00
76998;BME280;65930;48.874;10.734;2022-12-16T15:15:37;95476.72;;;-2.52;80.47
76998;BME280;65930;48.874;10.734;2022-12-16T15:18:38;95480.44;;;-2.66;80.80
76998;BME280;65930;48.874;10.734;2022-12-16T15:21:24;95489.72;;;-2.67;80.71
76998;BME280;65930;48.874;10.734;2022-12-16T15:24:15;95494.28;;;-2.58;80.00
76998;BME280;65930;48.874;10.734;2022-12-16T15:33:26;95508.66;;;-2.58;80.96
76998;BME280;65930;48.874;10.734;2022-12-16T15:36:24;95511.81;;;-2.56;80.45
76998;BME280;65930;48.874;10.734;2022-12-16T15:42:04;95513.06;;;-2.53;79.92
76998;BME280;65930;48.874;10.734;2022-12-16T15:44:50;95531.94;;;-2.57;80.63
76998;BME280;65930;48.874;10.734;2022-12-16T15:47:37;95526.69;;;-2.62;80.84
76998;BME280;65930;48.874;10.734;2022-12-16T15:50:25;95540.38;;;-2.58;80.38
76998;BME280;65930;48.874;10.734;2022-12-16T15:56:24;95557.03;;;-2.69;81.21
76998;BME280;65930;48.874;10.734;2022-12-16T15:59:31;95560.63;;;-2.56;79.92
76998;BME280;65930;48.874;10.734;2022-12-16T16:02:20;95559.69;;;-2.60;80.67
76998;BME280;65930;48.874;10.734;2022-12-16T16:05:19;95568.31;;;-2.58;80.54
76998;BME280;65930;48.874;10.734;2022-12-16T16:08:04;95575.81;;;-2.63;80.19
76998;BME280;65930;48.874;10.734;2022-12-16T16:10:48;95566.56;;;-2.62;80.25
76998;BME280;65930;48.874;10.734;2022-12-16T16:13:32;95577.00;;;-2.73;80.56